Time;durP1;ratioP1;P1;durP2;ratioP2;P2;SDS_P1;SDS_P2;PMS_P1;PMS_P2;Temp;Humidity;BMP_temperature;BMP_pressure;BME280_temperature;BME280_humidity;BME280_pressure;Samples;Min_cycle;Max_cycle;Signal;HPM_P1;HPM_P2
2022/10/03 08:02:00;;;;;;;0.90;0.90;;;20.70;99.90;;;;;;5130666;27;20541;-65
2022/10/03 08:05:16;;;;;;;1.10;1.00;;;20.80;99.90;;;;;;5139410;27;20443;-65
2022/10/03 08:08:02;;;;;;;2.03;1.67;;;20.80;99.90;;;;;;5026464;28;20524;-67
2022/10/03 08:11:03;;;;;;;1.37;1.27;;;20.70;99.90;;;;;;5118723;28;20508;-66
2022/10/03 08:13:46;;;;;;;0.90;0.90;;;20.70;99.90;;;;;;5148015;22;20883;-64
2022/10/03 08:16:31;;;;;;;1.03;1.03;;;20.60;99.90;;;;;;5089019;28;20469;-62
2022/10/03 08:19:15;;;;;;;3.13;1.70;;;20.70;99.90;;;;;;5088937;28;21017;-61
2022/10/03 08:21:55;;;;;;;3.80;2.67;;;20.70;99.90;;;;;;5089107;28;20438;-63
2022/10/03 08:24:45;;;;;;;2.43;2.20;;;20.70;99.90;;;;;;5103491;28;20536;-61
2022/10/03 08:27:47;;;;;;;8.00;1.83;;;20.70;99.90;;;;;;5109015;28;20444;-65
2022/10/03 08:30:27;;;;;;;4.20;2.63;;;20.80;99.90;;;;;;5102465;28;20445;-65
2022/10/03 08:33:14;;;;;;;8.33;2.80;;;20.90;99.90;;;;;;5109072;28;20524;-65
2022/10/03 08:36:20;;;;;;;3.80;1.60;;;20.90;99.90;;;;;;5106533;28;21032;-65
2022/10/03 08:39:06;;;;;;;2.20;1.97;;;20.90;99.90;;;;;;5086664;28;20528;-62
2022/10/03 08:42:04;;;;;;;10.43;3.40;;;20.90;99.90;;;;;;5081174;28;20573;-63
2022/10/03 08:45:03;;;;;;;3.07;2.23;;;20.90;99.90;;;;;;5087443;28;20904;-65
2022/10/03 08:47:48;;;;;;;8.90;2.57;;;21.00;99.90;;;;;;5088125;28;20525;-64
2022/10/03 08:50:47;;;;;;;2.83;2.33;;;21.10;99.90;;;;;;5088486;28;20446;-63
2022/10/03 08:53:50;;;;;;;8.37;4.10;;;21.20;99.90;;;;;;5088141;28;20439;-63
2022/10/03 08:56:22;;;;;;;2.70;2.47;;;21.20;99.90;;;;;;5088245;28;20434;-64
2022/10/03 08:59:15;;;;;;;5.43;3.50;;;21.20;99.90;;;;;;5088237;28;20950;-63
2022/10/03 09:02:15;;;;;;;2.97;2.30;;;21.30;99.90;;;;;;5088114;28;20482;-64
2022/10/03 09:05:24;;;;;;;3.53;3.17;;;21.30;99.90;;;;;;5088171;28;20808;-63
2022/10/03 09:08:24;;;;;;;3.97;2.80;;;21.30;99.90;;;;;;5085757;28;20465;-64
2022/10/03 09:11:25;;;;;;;4.73;1.90;;;21.30;99.90;;;;;;5085235;28;20883;-64
2022/10/03 09:14:31;;;;;;;3.20;2.90;;;21.30;99.90;;;;;;5068427;28;20991;-64
2022/10/03 09:17:35;;;;;;;4.63;2.03;;;21.30;99.90;;;;;;5074265;28;20440;-63
2022/10/03 09:20:16;;;;;;;5.73;2.13;;;21.30;99.90;;;;;;5074316;28;20475;-64
2022/10/03 09:23:06;;;;;;;4.53;2.80;;;21.30;99.90;;;;;;5074247;28;20493;-63
2022/10/03 09:25:56;;;;;;;2.03;1.83;;;21.30;99.90;;;;;;5074249;28;20439;-63
2022/10/03 09:28:58;;;;;;;2.97;1.93;;;21.30;99.90;;;;;;5073992;28;20454;-63
2022/10/03 09:31:55;;;;;;;3.20;1.60;;;21.30;99.90;;;;;;5074076;28;20443;-64
2022/10/03 09:34:51;;;;;;;2.60;2.03;;;21.30;99.90;;;;;;5072941;28;20475;-64
2022/10/03 09:37:46;;;;;;;3.10;1.90;;;21.30;99.90;;;;;;5072784;28;20455;-65
2022/10/03 09:40:46;;;;;;;2.87;1.40;;;21.30;99.90;;;;;;5073825;28;20483;-64
2022/10/03 09:43:56;;;;;;;1.80;1.70;;;21.30;99.90;;;;;;5073775;28;20534;-64
2022/10/03 09:49:58;;;;;;;2.17;1.90;;;21.30;99.90;;;;;;5073464;28;20976;-63
2022/10/03 09:52:39;;;;;;;2.40;2.20;;;21.30;99.90;;;;;;5073720;28;20882;-63
2022/10/03 09:55:26;;;;;;;2.20;1.63;;;21.30;99.90;;;;;;5073605;28;20459;-64
2022/10/03 09:58:09;;;;;;;2.50;1.50;;;21.30;99.90;;;;;;5073413;28;20454;-65
2022/10/03 10:00:59;;;;;;;3.23;1.97;;;21.30;99.80;;;;;;5073473;28;20487;-64
2022/10/03 10:04:10;;;;;;;2.73;1.77;;;21.30;99.70;;;;;;5073300;28;20502;-62
2022/10/03 10:07:16;;;;;;;1.53;1.43;;;21.30;99.60;;;;;;5073306;28;20447;-64
2022/10/03 10:10:05;;;;;;;1.90;1.47;;;21.30;99.50;;;;;;5073542;28;20868;-64
2022/10/03 10:13:14;;;;;;;1.93;1.73;;;21.30;99.80;;;;;;5073277;28;20522;-64
2022/10/03 10:16:08;;;;;;;3.60;2.03;;;21.30;99.30;;;;;;5073452;28;20435;-64
2022/10/03 10:19:14;;;;;;;2.40;1.80;;;21.30;99.20;;;;;;5073062;28;20472;-64
2022/10/03 10:21:56;;;;;;;1.50;1.40;;;21.30;99.10;;;;;;5067332;28;20491;-64
2022/10/03 10:24:59;;;;;;;4.60;2.43;;;21.30;99.10;;;;;;5072210;28;20513;-64
2022/10/03 10:28:01;;;;;;;2.60;1.50;;;21.30;99.00;;;;;;5072785;28;20454;-64
2022/10/03 10:31:05;;;;;;;3.97;1.40;;;21.30;98.90;;;;;;5072948;28;20435;-65
2022/10/03 10:34:16;;;;;;;2.50;1.67;;;21.30;98.80;;;;;;5072912;28;20487;-64
2022/10/03 10:37:31;;;;;;;2.40;1.50;;;21.30;98.70;;;;;;5072647;28;20523;-64
2022/10/03 10:40:44;;;;;;;2.63;1.40;;;21.30;98.60;;;;;;5050291;28;20472;-64
2022/10/03 10:43:39;;;;;;;1.33;1.23;;;21.30;98.60;;;;;;5072673;28;20522;-64
2022/10/03 10:46:31;;;;;;;2.73;1.37;;;21.30;98.60;;;;;;5072687;28;20531;-65
2022/10/03 10:49:44;;;;;;;1.17;1.17;;;21.30;98.50;;;;;;5072592;28;20447;-65
2022/10/03 10:53:10;;;;;;;1.87;1.77;;;21.30;98.40;;;;;;5072561;28;20997;-63
2022/10/03 10:56:13;;;;;;;1.47;1.37;;;21.40;98.40;;;;;;5072322;28;20876;-63
2022/10/03 10:59:19;;;;;;;1.53;1.43;;;21.30;98.30;;;;;;5051195;28;20822;-65
2022/10/03 11:02:18;;;;;;;1.63;1.50;;;21.30;98.20;;;;;;5072238;28;20475;-63
2022/10/03 11:05:33;;;;;;;1.60;1.27;;;21.40;98.20;;;;;;5072210;28;20467;-63
2022/10/03 11:08:44;;;;;;;1.57;1.47;;;21.40;98.10;;;;;;5049766;28;21047;-63
2022/10/03 11:11:40;;;;;;;1.73;1.57;;;21.40;98.10;;;;;;5067807;28;20539;-64
2022/10/03 11:14:34;;;;;;;1.40;1.30;;;21.40;98.10;;;;;;5071983;28;20921;-63
2022/10/03 11:17:31;;;;;;;1.60;1.50;;;21.40;98.00;;;;;;5062318;28;20443;-64
2022/10/03 11:20:59;;;;;;;1.80;1.10;;;21.40;97.90;;;;;;5072050;28;20446;-64
2022/10/03 11:24:14;;;;;;;2.27;1.97;;;21.40;97.90;;;;;;5048188;28;20444;-64
2022/10/03 11:27:24;;;;;;;2.37;1.50;;;21.40;97.80;;;;;;5060723;28;20459;-66
2022/10/03 11:30:23;;;;;;;3.10;1.50;;;21.30;99.60;;;;;;5072320;28;20534;-67
2022/10/03 11:33:34;;;;;;;2.50;1.80;;;21.30;99.90;;;;;;5054537;28;20806;-63
2022/10/03 11:36:32;;;;;;;1.17;1.10;;;21.20;99.90;;;;;;5071441;28;20531;-64
2022/10/03 11:39:04;;;;;;;1.70;1.20;;;21.20;99.90;;;;;;5071838;28;20556;-65
2022/10/03 11:41:50;;;;;;;1.30;1.30;;;21.20;99.90;;;;;;5071784;28;20487;-63
2022/10/03 11:44:22;;;;;;;2.13;1.30;;;21.20;99.90;;;;;;5071362;28;20467;-64
2022/10/03 11:47:35;;;;;;;2.70;1.87;;;21.20;99.90;;;;;;5071637;28;21036;-63
2022/10/03 11:50:37;;;;;;;1.53;1.43;;;21.30;99.90;;;;;;5061404;28;20447;-64
2022/10/03 11:53:49;;;;;;;1.73;1.63;;;21.30;99.90;;;;;;5070705;28;20463;-64
2022/10/03 11:56:34;;;;;;;1.20;1.10;;;21.40;99.90;;;;;;5009200;28;20450;-64
2022/10/03 11:59:17;;;;;;;1.33;1.23;;;21.40;99.90;;;;;;5044422;28;20471;-63
2022/10/03 12:02:06;;;;;;;1.53;1.50;;;21.40;99.90;;;;;;5051484;28;20486;-63
2022/10/03 12:04:46;;;;;;;1.90;1.30;;;21.40;99.90;;;;;;5055380;28;20930;-63
2022/10/03 12:10:26;;;;;;;1.63;1.10;;;21.40;99.90;;;;;;5032867;28;20429;-64
2022/10/03 12:12:55;;;;;;;1.47;1.37;;;21.40;99.90;;;;;;5071365;28;20530;-64
2022/10/03 12:15:35;;;;;;;1.87;1.57;;;21.40;99.80;;;;;;5071037;28;20470;-65
2022/10/03 12:18:07;;;;;;;1.50;1.33;;;21.50;99.70;;;;;;5071287;28;20532;-65
2022/10/03 12:20:57;;;;;;;1.80;1.30;;;21.50;99.60;;;;;;5071226;28;20530;-65
2022/10/03 12:23:36;;;;;;;1.30;1.20;;;21.50;99.70;;;;;;5070295;28;20488;-64
2022/10/03 12:26:04;;;;;;;1.20;1.20;;;21.50;99.20;;;;;;5071124;28;20447;-63
2022/10/03 12:28:38;;;;;;;1.00;1.00;;;21.50;99.10;;;;;;5070970;28;20439;-64
2022/10/03 12:31:14;;;;;;;1.53;1.43;;;21.50;99.00;;;;;;5071382;28;20766;-65
2022/10/03 12:33:52;;;;;;;1.60;1.50;;;21.50;98.90;;;;;;5070741;28;20474;-64
2022/10/03 12:36:27;;;;;;;0.97;0.97;;;21.50;98.80;;;;;;5070351;28;20443;-64
2022/10/03 12:39:06;;;;;;;1.20;1.10;;;21.50;98.60;;;;;;5070512;28;20946;-64
2022/10/03 12:41:53;;;;;;;1.50;1.40;;;21.50;98.50;;;;;;5071068;28;20489;-65
2022/10/03 12:44:30;;;;;;;1.13;0.80;;;21.50;98.40;;;;;;5071137;28;20828;-64
2022/10/03 12:47:07;;;;;;;1.27;1.20;;;21.50;98.30;;;;;;5072419;28;20457;-64
2022/10/03 12:49:49;;;;;;;2.43;0.80;;;21.50;98.30;;;;;;5073984;28;20816;-66
2022/10/03 12:52:22;;;;;;;1.20;1.10;;;21.50;98.20;;;;;;5074989;28;20784;-65
2022/10/03 12:54:56;;;;;;;0.80;0.80;;;21.50;98.20;;;;;;5074657;28;20478;-66
2022/10/03 12:57:45;;;;;;;1.20;1.10;;;21.50;98.10;;;;;;5074463;28;20485;-65
2022/10/03 13:00:20;;;;;;;1.23;1.10;;;21.50;98.10;;;;;;5074507;28;20447;-65
2022/10/03 13:03:11;;;;;;;1.40;1.30;;;21.50;98.30;;;;;;5074520;28;20489;-65
2022/10/03 13:06:06;;;;;;;1.37;1.10;;;21.50;97.90;;;;;;5074773;28;20948;-64
2022/10/03 13:08:48;;;;;;;1.00;1.00;;;21.50;97.80;;;;;;5074318;28;20465;-65
2022/10/03 13:11:31;;;;;;;0.90;0.90;;;21.50;97.80;;;;;;5054456;28;20444;-65
2022/10/03 13:14:18;;;;;;;1.47;1.03;;;21.50;97.70;;;;;;5054360;28;20506;-66
2022/10/03 13:16:57;;;;;;;1.40;1.10;;;21.50;97.60;;;;;;5054220;28;20455;-66
2022/10/03 13:19:28;;;;;;;1.10;1.00;;;21.50;97.60;;;;;;5059803;28;20459;-66
2022/10/03 13:22:05;;;;;;;1.00;1.00;;;21.50;97.50;;;;;;5074302;28;20487;-65
2022/10/03 13:24:38;;;;;;;1.00;1.00;;;21.50;97.40;;;;;;5073909;28;20520;-66
2022/10/03 13:27:17;;;;;;;1.30;0.70;;;21.50;97.40;;;;;;5073824;28;20448;-65
2022/10/03 13:29:48;;;;;;;1.00;1.00;;;21.50;97.30;;;;;;5074150;28;20447;-66
2022/10/03 13:32:22;;;;;;;1.50;1.40;;;21.50;97.30;;;;;;5074197;28;20439;-66
2022/10/03 13:38:20;;;;;;;1.17;1.07;;;21.50;97.20;;;;;;5073563;28;20446;-66
2022/10/03 13:40:56;;;;;;;0.83;0.83;;;21.50;97.10;;;;;;5073832;28;20442;-66
2022/10/03 13:43:35;;;;;;;0.80;0.80;;;21.50;97.00;;;;;;5073976;28;20936;-66
2022/10/03 13:46:06;;;;;;;0.90;0.90;;;21.60;97.10;;;;;;5073353;28;20508;-66
2022/10/03 13:48:35;;;;;;;1.03;1.03;;;21.60;97.00;;;;;;5073599;28;20453;-65
2022/10/03 13:51:08;;;;;;;0.67;0.67;;;21.60;96.90;;;;;;5073666;28;20439;-66
2022/10/03 13:53:58;;;;;;;1.00;0.70;;;21.60;96.90;;;;;;5073687;28;20478;-65
2022/10/03 13:56:51;;;;;;;0.93;0.90;;;21.60;96.90;;;;;;5072593;28;20447;-66
2022/10/03 13:59:36;;;;;;;0.90;0.90;;;21.60;96.90;;;;;;5053799;28;20805;-65
2022/10/03 14:02:15;;;;;;;1.43;1.20;;;21.60;96.90;;;;;;5053447;28;20480;-65
2022/10/03 14:05:06;;;;;;;0.63;0.63;;;21.60;96.80;;;;;;5055688;28;20491;-65
2022/10/03 14:07:42;;;;;;;0.80;0.80;;;21.60;96.80;;;;;;5073249;28;20540;-66
2022/10/03 14:10:25;;;;;;;0.70;0.70;;;21.70;96.90;;;;;;5073428;28;20445;-66
2022/10/03 14:13:09;;;;;;;0.97;0.97;;;21.70;96.80;;;;;;5073494;28;21059;-66
2022/10/03 14:15:46;;;;;;;1.43;1.33;;;21.70;96.80;;;;;;5073394;28;20444;-64
2022/10/03 14:18:32;;;;;;;1.00;0.70;;;21.70;96.80;;;;;;5073084;28;20439;-65
2022/10/03 14:21:45;;;;;;;1.10;1.00;;;21.70;97.10;;;;;;5073116;28;20808;-63
2022/10/03 14:24:48;;;;;;;1.10;1.10;;;21.70;97.10;;;;;;5073221;28;20459;-63
2022/10/03 14:27:34;;;;;;;1.13;0.93;;;21.70;96.80;;;;;;5052973;28;20444;-64
2022/10/03 14:30:08;;;;;;;0.80;0.80;;;21.70;96.80;;;;;;5053133;28;20811;-64
2022/10/03 14:32:44;;;;;;;0.83;0.83;;;21.80;96.80;;;;;;5052949;28;20483;-65
2022/10/03 14:35:25;;;;;;;0.90;0.90;;;21.80;96.80;;;;;;5072044;28;21007;-65
2022/10/03 14:37:59;;;;;;;0.87;0.77;;;21.80;96.70;;;;;;5072714;28;20542;-66
2022/10/03 14:40:34;;;;;;;0.83;0.83;;;21.80;96.70;;;;;;5072867;28;20445;-65
2022/10/03 14:43:31;;;;;;;1.13;0.77;;;21.80;96.70;;;;;;5072537;28;20521;-65
2022/10/03 14:46:00;;;;;;;0.70;0.70;;;21.80;96.60;;;;;;5052690;28;20452;-64
2022/10/03 14:48:30;;;;;;;1.13;1.03;;;21.80;96.50;;;;;;5052414;28;20444;-65
2022/10/03 14:51:06;;;;;;;0.70;0.70;;;21.80;96.50;;;;;;5052550;28;20451;-64
2022/10/03 14:53:34;;;;;;;0.73;0.73;;;21.90;96.50;;;;;;5057725;28;20998;-64
2022/10/03 14:56:06;;;;;;;1.90;1.00;;;21.90;96.40;;;;;;5072505;28;20451;-64
2022/10/03 14:58:37;;;;;;;1.23;1.13;;;21.90;96.70;;;;;;5072434;28;20447;-65
2022/10/03 15:01:12;;;;;;;0.70;0.70;;;21.90;96.30;;;;;;5072500;28;20447;-61
2022/10/03 15:03:42;;;;;;;0.90;0.87;;;21.90;96.20;;;;;;5072088;28;20465;-64
2022/10/03 15:06:33;;;;;;;0.60;0.60;;;21.90;96.60;;;;;;5072463;28;20463;-63
2022/10/03 15:09:04;;;;;;;0.50;0.50;;;21.90;96.20;;;;;;5071672;28;20440;-63
2022/10/03 15:11:34;;;;;;;0.70;0.70;;;21.90;96.10;;;;;;5072132;28;20431;-64
2022/10/03 15:14:05;;;;;;;0.80;0.80;;;21.90;96.00;;;;;;5071801;28;20478;-62
2022/10/03 15:16:36;;;;;;;0.80;0.80;;;21.90;96.00;;;;;;5071933;28;20855;-64
2022/10/03 15:19:08;;;;;;;0.90;0.90;;;21.90;96.00;;;;;;5071956;28;20440;-63
2022/10/03 15:33:44;;;;;;;0.73;0.73;;;21.90;95.70;;;;;;5101811;27;20578;-67
2022/10/03 15:36:15;;;;;;;2.33;0.90;;;22.00;96.50;;;;;;5088898;28;20443;-66
2022/10/03 15:38:50;;;;;;;0.93;0.90;;;22.00;96.50;;;;;;5088619;28;20437;-66
2022/10/03 15:41:21;;;;;;;0.80;0.80;;;22.00;96.60;;;;;;5088914;28;20568;-66
2022/10/03 15:43:56;;;;;;;0.90;0.90;;;21.90;96.90;;;;;;5088619;28;20468;-63
2022/10/03 15:46:33;;;;;;;1.43;1.37;;;21.90;97.30;;;;;;5089433;28;20886;-64
2022/10/03 15:49:06;;;;;;;0.80;0.80;;;21.80;97.60;;;;;;5088732;28;20949;-65
2022/10/03 15:51:37;;;;;;;1.33;1.00;;;21.80;97.90;;;;;;5088775;28;20526;-65
2022/10/03 15:54:08;;;;;;;0.93;0.93;;;21.70;98.40;;;;;;5088450;28;20973;-66
2022/10/03 15:56:39;;;;;;;1.17;1.10;;;21.70;98.20;;;;;;5088558;28;20529;-65
2022/10/03 15:59:08;;;;;;;0.70;0.70;;;21.70;98.50;;;;;;5088566;28;20443;-66
2022/10/03 16:01:39;;;;;;;0.80;0.77;;;21.70;98.90;;;;;;5088432;28;21046;-63
2022/10/03 16:04:15;;;;;;;0.67;0.67;;;21.60;98.60;;;;;;5088184;28;20983;-66
2022/10/03 16:06:48;;;;;;;1.20;1.10;;;21.60;98.80;;;;;;5088425;28;20450;-67
2022/10/03 16:09:24;;;;;;;1.07;0.90;;;21.60;98.90;;;;;;5088392;28;20465;-67
2022/10/03 16:12:00;;;;;;;0.77;0.77;;;21.60;99.00;;;;;;5088318;28;20449;-64
2022/10/03 16:14:32;;;;;;;1.03;0.93;;;21.60;99.00;;;;;;5087963;28;20463;-66
2022/10/03 16:17:04;;;;;;;0.90;0.90;;;21.60;99.50;;;;;;5088236;28;20605;-66
2022/10/03 16:19:38;;;;;;;1.27;1.27;;;21.60;99.30;;;;;;5088169;28;20530;-67
2022/10/03 16:22:16;;;;;;;0.87;0.87;;;21.60;99.40;;;;;;5073936;28;20479;-68
2022/10/03 16:24:50;;;;;;;1.13;1.03;;;21.60;99.90;;;;;;5049720;28;20471;-67
2022/10/03 16:27:19;;;;;;;1.00;1.00;;;21.60;99.90;;;;;;5054717;28;20448;-69
2022/10/03 16:29:54;;;;;;;1.00;1.00;;;21.60;99.90;;;;;;5047762;28;20445;-67
2022/10/03 16:32:24;;;;;;;1.30;1.13;;;21.60;99.90;;;;;;5056360;28;20451;-68
2022/10/03 16:34:53;;;;;;;17.13;1.60;;;21.60;99.80;;;;;;5053666;28;21001;-69
2022/10/03 16:37:25;;;;;;;2.97;2.77;;;21.60;99.90;;;;;;5054107;28;20551;-68
2022/10/03 16:39:57;;;;;;;0.93;0.93;;;21.60;99.70;;;;;;5054451;28;20474;-68
2022/10/03 16:42:27;;;;;;;1.17;1.07;;;21.60;99.50;;;;;;5053879;28;20483;-68
2022/10/03 16:44:57;;;;;;;1.10;1.10;;;21.70;99.30;;;;;;5054068;28;20464;-68
2022/10/03 16:47:32;;;;;;;1.07;1.07;;;21.70;99.10;;;;;;5054001;28;20472;-68
2022/10/03 16:52:48;;;;;;;1.30;1.20;;;21.70;98.80;;;;;;5053730;28;20798;-68
2022/10/03 16:55:17;;;;;;;2.10;1.03;;;21.70;98.60;;;;;;5053971;28;20447;-68
2022/10/03 16:57:47;;;;;;;1.90;1.00;;;21.70;98.40;;;;;;5053777;28;20444;-68
2022/10/03 17:00:20;;;;;;;1.07;0.73;;;21.70;98.40;;;;;;5053989;28;20444;-68
2022/10/03 17:02:47;;;;;;;1.00;0.90;;;21.70;98.20;;;;;;5053589;28;20840;-68
2022/10/03 17:05:17;;;;;;;1.27;1.07;;;21.70;98.10;;;;;;5053665;28;20874;-68
2022/10/03 17:07:47;;;;;;;0.80;0.80;;;21.70;98.00;;;;;;5053673;28;20531;-67
2022/10/03 17:10:28;;;;;;;2.40;0.90;;;21.70;97.90;;;;;;5053760;28;20444;-69
2022/10/03 17:12:59;;;;;;;1.27;0.77;;;21.70;97.80;;;;;;5053425;28;20535;-69
2022/10/03 17:15:29;;;;;;;1.37;0.83;;;21.70;97.80;;;;;;5053606;28;20531;-68
2022/10/03 17:18:03;;;;;;;1.20;1.10;;;21.70;97.70;;;;;;5053756;28;20444;-68
2022/10/03 17:20:42;;;;;;;1.07;1.07;;;21.70;97.60;;;;;;5053499;28;20436;-68
2022/10/03 17:23:14;;;;;;;1.30;1.20;;;21.70;97.50;;;;;;5053242;28;20909;-68
2022/10/03 17:25:50;;;;;;;0.90;0.70;;;21.70;97.40;;;;;;5053424;28;20943;-68
2022/10/03 17:28:31;;;;;;;1.27;1.17;;;21.70;97.30;;;;;;5053451;28;20535;-68
2022/10/03 17:31:01;;;;;;;1.00;1.00;;;21.80;97.30;;;;;;5053437;28;20444;-68
2022/10/03 17:33:36;;;;;;;0.70;0.70;;;21.80;97.20;;;;;;5052828;28;20478;-66
2022/10/03 17:36:37;;;;;;;1.23;0.70;;;21.80;97.10;;;;;;5053080;28;20448;-66
2022/10/03 17:39:06;;;;;;;0.70;0.70;;;21.70;97.00;;;;;;5048058;28;20544;-66
2022/10/03 17:41:39;;;;;;;0.70;0.70;;;21.70;96.90;;;;;;5053019;28;20448;-66
2022/10/03 17:44:19;;;;;;;1.10;1.00;;;21.70;96.90;;;;;;5052524;28;20464;-67
2022/10/03 17:46:57;;;;;;;1.10;1.10;;;21.70;96.80;;;;;;5052431;28;20444;-67
2022/10/03 17:49:37;;;;;;;0.70;0.70;;;21.80;96.70;;;;;;5052935;28;20440;-67
2022/10/03 17:52:15;;;;;;;0.80;0.80;;;21.80;96.70;;;;;;5052983;28;20448;-67
2022/10/03 17:54:46;;;;;;;1.77;0.93;;;21.70;96.60;;;;;;5052717;28;20472;-68
2022/10/03 17:57:19;;;;;;;0.70;0.70;;;21.70;96.60;;;;;;5053038;28;20468;-67
2022/10/03 17:59:54;;;;;;;0.70;0.70;;;21.70;96.50;;;;;;5052859;28;20445;-68
2022/10/03 18:02:26;;;;;;;0.87;0.83;;;21.70;96.40;;;;;;5052484;28;20480;-66
2022/10/03 18:05:00;;;;;;;0.67;0.67;;;21.70;96.30;;;;;;5052501;28;20991;-68
2022/10/03 18:07:30;;;;;;;0.73;0.73;;;21.70;96.30;;;;;;5052625;28;20450;-67
2022/10/03 18:09:58;;;;;;;1.93;0.90;;;21.70;96.20;;;;;;5052633;28;20836;-67
2022/10/03 18:12:32;;;;;;;0.70;0.70;;;21.70;96.10;;;;;;5052322;28;20455;-67
2022/10/03 18:15:24;;;;;;;0.80;0.80;;;21.70;96.10;;;;;;5052412;28;20502;-66
2022/10/03 18:18:22;;;;;;;0.83;0.83;;;21.70;96.00;;;;;;5052433;28;20540;-66
2022/10/03 18:20:56;;;;;;;0.60;0.60;;;21.70;95.90;;;;;;5052472;28;20978;-66
2022/10/03 18:23:37;;;;;;;0.63;0.63;;;21.70;95.90;;;;;;5051934;28;20873;-67
2022/10/03 18:26:13;;;;;;;0.60;0.60;;;21.70;95.80;;;;;;5052302;28;20841;-66
2022/10/03 18:28:46;;;;;;;2.03;1.03;;;21.70;95.80;;;;;;5052250;28;20444;-66
2022/10/03 18:31:18;;;;;;;0.63;0.63;;;21.70;95.70;;;;;;5052139;28;20444;-67
2022/10/03 18:33:49;;;;;;;0.93;0.90;;;21.70;95.70;;;;;;5051805;28;20989;-67
2022/10/03 18:36:21;;;;;;;0.80;0.80;;;21.70;95.60;;;;;;5052130;28;20543;-68
2022/10/03 18:38:52;;;;;;;3.90;0.83;;;21.70;95.50;;;;;;5052144;28;21040;-66
2022/10/03 18:41:20;;;;;;;0.90;0.90;;;21.70;95.50;;;;;;5052200;28;20868;-66
2022/10/03 18:43:57;;;;;;;1.23;1.13;;;21.70;95.50;;;;;;5051667;28;20571;-68
2022/10/03 18:46:28;;;;;;;1.23;1.13;;;21.70;95.60;;;;;;5051989;28;20865;-68
2022/10/03 18:48:59;;;;;;;2.10;1.90;;;21.60;96.30;;;;;;5051501;28;20947;-65
2022/10/03 18:51:32;;;;;;;4.50;1.17;;;21.60;97.40;;;;;;5050894;28;20810;-65
2022/10/03 18:54:05;;;;;;;1.33;1.30;;;21.60;97.80;;;;;;5051562;28;20460;-68
2022/10/03 18:56:33;;;;;;;1.53;1.43;;;21.60;98.20;;;;;;5051277;28;20483;-67
2022/10/03 18:59:29;;;;;;;1.63;1.47;;;21.50;98.30;;;;;;5051761;28;20527;-67
2022/10/03 19:02:00;;;;;;;1.53;1.10;;;21.50;98.40;;;;;;5041993;28;20449;-69
2022/10/03 19:04:39;;;;;;;1.30;1.13;;;21.50;98.50;;;;;;5051616;28;20471;-68
2022/10/03 19:07:19;;;;;;;1.10;1.10;;;21.50;98.80;;;;;;5051628;28;20535;-67
2022/10/03 19:10:12;;;;;;;7.47;3.47;;;21.50;98.90;;;;;;5061015;28;20865;-68
2022/10/03 19:12:43;;;;;;;0.90;0.80;;;21.50;98.90;;;;;;5071408;28;20503;-69
2022/10/03 19:15:19;;;;;;;1.07;0.97;;;21.50;98.90;;;;;;5071603;28;20518;-68
2022/10/03 19:17:58;;;;;;;0.73;0.73;;;21.50;99.00;;;;;;5071603;28;20471;-69
2022/10/03 19:20:28;;;;;;;1.27;1.10;;;21.50;99.00;;;;;;5056711;28;21026;-70
2022/10/03 19:23:00;;;;;;;0.90;0.80;;;21.50;99.00;;;;;;5051225;28;20911;-65
2022/10/03 19:25:30;;;;;;;1.57;1.47;;;21.50;98.90;;;;;;5051441;28;20535;-66
2022/10/03 19:27:59;;;;;;;1.10;1.10;;;21.40;98.80;;;;;;5051528;28;20476;-69
2022/10/03 19:30:30;;;;;;;1.13;1.00;;;21.40;99.30;;;;;;5069081;28;20454;-69
2022/10/03 19:33:02;;;;;;;1.27;1.17;;;21.40;99.10;;;;;;5071017;28;20477;-68
2022/10/03 19:35:30;;;;;;;1.20;1.10;;;21.40;99.30;;;;;;5071382;28;20941;-68
2022/10/03 19:38:02;;;;;;;1.03;0.90;;;21.40;99.60;;;;;;5071358;28;20439;-68
2022/10/03 19:40:41;;;;;;;1.00;1.00;;;21.40;99.30;;;;;;5055079;28;20452;-68
2022/10/03 19:43:29;;;;;;;1.53;1.43;;;21.40;99.20;;;;;;5050973;28;20533;-68
2022/10/03 19:46:21;;;;;;;1.30;1.20;;;21.40;99.30;;;;;;5051290;28;20447;-68
2022/10/03 19:48:52;;;;;;;1.20;1.17;;;21.40;99.30;;;;;;5056793;28;20525;-66
2022/10/03 19:51:22;;;;;;;1.20;1.20;;;21.40;99.30;;;;;;5071294;28;20526;-68
2022/10/03 19:53:51;;;;;;;1.43;0.90;;;21.40;99.40;;;;;;5071386;28;20946;-67
2022/10/03 19:56:21;;;;;;;1.43;1.33;;;21.40;99.30;;;;;;5071396;28;20869;-67
2022/10/03 19:59:00;;;;;;;2.50;1.13;;;21.40;99.40;;;;;;5065342;28;21022;-67
2022/10/03 20:01:27;;;;;;;1.00;1.00;;;21.40;99.40;;;;;;5051268;28;20479;-67
2022/10/03 20:03:56;;;;;;;1.97;1.83;;;21.30;99.40;;;;;;5050757;28;20484;-68
2022/10/03 20:06:26;;;;;;;1.30;1.20;;;21.30;99.40;;;;;;5051191;28;20448;-69
2022/10/03 20:08:56;;;;;;;1.53;1.43;;;21.30;99.30;;;;;;5052852;28;20455;-67
2022/10/03 20:11:42;;;;;;;0.80;0.80;;;21.30;99.40;;;;;;5054673;28;20541;-68
2022/10/03 20:14:14;;;;;;;1.00;1.00;;;21.30;99.40;;;;;;5054629;28;20455;-68
2022/10/03 20:16:44;;;;;;;1.43;1.33;;;21.30;99.40;;;;;;5056232;28;20466;-68
2022/10/03 20:19:14;;;;;;;0.80;0.80;;;21.30;99.40;;;;;;5074881;28;20803;-68
2022/10/03 20:21:41;;;;;;;1.63;1.20;;;21.30;99.40;;;;;;5074893;28;20931;-69
2022/10/03 20:24:13;;;;;;;1.53;1.43;;;21.30;99.40;;;;;;5074194;28;20566;-69
2022/10/03 20:26:46;;;;;;;1.23;0.90;;;21.30;99.40;;;;;;5071788;28;20804;-68
2022/10/03 20:29:23;;;;;;;1.00;1.00;;;21.30;99.50;;;;;;5056819;28;20450;-69
2022/10/03 20:31:50;;;;;;;1.20;1.20;;;21.30;99.50;;;;;;5054295;28;20452;-69
2022/10/03 20:34:22;;;;;;;1.10;1.10;;;21.30;99.40;;;;;;5054145;28;20492;-69
2022/10/03 20:36:53;;;;;;;2.20;1.20;;;21.30;99.50;;;;;;5059082;28;20444;-68
2022/10/03 20:39:25;;;;;;;0.80;0.80;;;21.30;99.50;;;;;;5057045;28;20823;-68
2022/10/03 20:42:08;;;;;;;1.10;1.10;;;21.30;99.50;;;;;;5054160;28;20536;-66
2022/10/03 20:44:54;;;;;;;4.80;1.03;;;21.30;99.50;;;;;;5054194;28;20476;-69
2022/10/03 20:47:36;;;;;;;2.20;2.10;;;21.30;99.50;;;;;;5065816;28;20985;-71
2022/10/03 20:50:13;;;;;;;1.00;1.00;;;21.30;99.40;;;;;;5074504;28;20508;-71
2022/10/03 20:52:40;;;;;;;1.27;1.23;;;21.40;99.20;;;;;;5074508;28;20538;-71
2022/10/03 20:55:18;;;;;;;0.93;0.93;;;21.40;99.10;;;;;;5074428;28;20511;-67
2022/10/03 20:57:53;;;;;;;1.50;1.50;;;21.40;99.00;;;;;;5059343;28;20535;-68
2022/10/03 21:00:22;;;;;;;1.40;1.10;;;21.40;98.90;;;;;;5072612;28;20530;-64
2022/10/03 21:02:56;;;;;;;0.97;0.97;;;21.40;98.70;;;;;;5073622;28;20444;-66
2022/10/03 21:05:25;;;;;;;1.70;1.10;;;21.40;98.70;;;;;;5073873;28;20451;-67
2022/10/03 21:07:55;;;;;;;1.33;1.10;;;21.40;98.50;;;;;;5055952;28;20448;-66
2022/10/03 21:10:28;;;;;;;1.20;1.10;;;21.40;98.50;;;;;;5062985;28;21069;-67
2022/10/03 21:13:00;;;;;;;1.10;1.10;;;21.40;98.30;;;;;;5066791;28;20441;-67
2022/10/03 21:15:36;;;;;;;2.00;1.90;;;21.40;98.20;;;;;;5066986;28;20529;-67
2022/10/03 21:18:04;;;;;;;1.50;1.40;;;21.50;98.20;;;;;;5087478;28;20483;-68
2022/10/03 21:20:37;;;;;;;1.63;1.33;;;21.40;98.10;;;;;;5086957;28;20440;-67
2022/10/03 21:23:14;;;;;;;1.23;1.10;;;21.40;98.00;;;;;;5085993;28;21032;-67
2022/10/03 21:25:43;;;;;;;1.30;1.20;;;21.40;97.90;;;;;;5087888;28;20467;-68
2022/10/03 21:28:24;;;;;;;1.43;1.33;;;21.40;97.80;;;;;;5063129;28;20536;-68
2022/10/03 21:31:09;;;;;;;1.07;1.07;;;21.40;97.80;;;;;;5053659;28;20503;-69
2022/10/03 21:33:44;;;;;;;1.20;1.20;;;21.40;97.70;;;;;;5053201;28;20547;-71
2022/10/03 21:36:18;;;;;;;1.40;1.30;;;21.50;97.70;;;;;;5056688;28;20808;-68
2022/10/03 21:38:49;;;;;;;1.17;1.03;;;21.40;97.70;;;;;;5068538;28;20535;-66
2022/10/03 21:41:28;;;;;;;1.43;1.33;;;21.40;97.80;;;;;;5054915;28;20449;-66
2022/10/03 21:44:00;;;;;;;1.10;1.10;;;21.40;97.60;;;;;;5053396;28;20484;-67
2022/10/03 21:46:38;;;;;;;2.00;1.20;;;21.40;97.50;;;;;;5101236;22;20491;-67
2022/10/03 21:49:30;;;;;;;1.37;1.30;;;21.30;97.80;;;;;;5091628;28;20444;-67
2022/10/03 21:52:21;;;;;;;1.20;1.13;;;21.30;97.50;;;;;;5093178;28;20525;-67
2022/10/03 21:55:00;;;;;;;1.97;1.87;;;21.30;97.60;;;;;;5093009;28;20439;-66
2022/10/03 21:57:39;;;;;;;3.30;1.63;;;21.20;97.60;;;;;;5079318;28;20453;-66
2022/10/03 22:00:13;;;;;;;1.90;1.80;;;21.20;97.70;;;;;;5072660;28;20458;-66
2022/10/03 22:03:01;;;;;;;1.17;1.10;;;21.20;97.70;;;;;;5064199;28;20530;-67
2022/10/03 22:05:40;;;;;;;4.50;1.97;;;21.20;97.70;;;;;;5052693;28;20933;-66
2022/10/03 22:08:19;;;;;;;1.83;1.53;;;21.20;97.70;;;;;;5070145;28;20450;-67
2022/10/03 22:10:59;;;;;;;1.40;1.30;;;21.20;97.80;;;;;;5072538;28;20450;-68
2022/10/03 22:13:31;;;;;;;1.80;1.67;;;21.20;97.80;;;;;;5072257;28;20956;-67
2022/10/03 22:16:05;;;;;;;2.40;1.50;;;21.10;97.70;;;;;;5072188;28;20463;-66
2022/10/03 22:18:55;;;;;;;1.50;1.40;;;21.10;97.80;;;;;;5053491;28;20523;-67
2022/10/03 22:21:26;;;;;;;1.17;1.17;;;21.10;97.80;;;;;;5052470;28;20452;-67
2022/10/03 22:23:59;;;;;;;1.67;1.57;;;21.10;97.80;;;;;;5052068;28;20480;-67
2022/10/03 22:26:33;;;;;;;1.70;1.60;;;21.10;97.80;;;;;;5052314;28;20467;-67